Time;durP1;ratioP1;P1;durP2;ratioP2;P2;SDS_P1;SDS_P2;PMS_P1;PMS_P2;Temp;Humidity;BMP_temperature;BMP_pressure;BME280_temperature;BME280_humidity;BME280_pressure;Samples;Min_cycle;Max_cycle;Signal;HPM_P1;HPM_P2
2021/08/13 00:02:07;;;;;;;28.45;12.93;;;23.30;38.60;;;;;;4276843;33;20139;-69
2021/08/13 00:04:33;;;;;;;33.60;16.60;;;23.20;38.90;;;;;;4289403;33;20076;-68
2021/08/13 00:06:59;;;;;;;30.77;15.07;;;23.20;39.00;;;;;;4289502;33;20099;-68
2021/08/13 00:09:25;;;;;;;33.95;15.73;;;23.30;38.90;;;;;;4277116;33;20087;-68
2021/08/13 00:11:54;;;;;;;31.80;14.57;;;23.20;39.00;;;;;;4289047;33;20538;-68
2021/08/13 00:14:20;;;;;;;39.85;18.50;;;23.20;39.10;;;;;;4289687;33;20075;-68
2021/08/13 00:16:46;;;;;;;31.73;14.68;;;23.20;39.10;;;;;;4265435;33;20080;-68
2021/08/13 00:19:12;;;;;;;34.72;17.40;;;23.20;39.10;;;;;;4289292;33;20159;-69
2021/08/13 00:21:40;;;;;;;32.20;15.43;;;23.20;39.20;;;;;;4300867;33;20095;-69
2021/08/13 00:24:06;;;;;;;36.78;19.90;;;23.20;39.10;;;;;;4302318;33;20163;-69
2021/08/13 00:26:32;;;;;;;28.80;15.52;;;23.20;39.20;;;;;;4277027;33;20082;-68
2021/08/13 00:28:58;;;;;;;34.47;15.73;;;23.20;39.20;;;;;;4301099;33;20682;-69
2021/08/13 00:31:24;;;;;;;35.38;17.48;;;23.20;39.10;;;;;;4277033;33;20084;-68
2021/08/13 00:33:51;;;;;;;32.50;15.93;;;23.20;39.10;;;;;;4277592;33;20107;-68
2021/08/13 00:36:17;;;;;;;34.83;16.73;;;23.20;39.10;;;;;;4278563;33;20511;-68
2021/08/13 00:38:43;;;;;;;31.35;15.02;;;23.20;39.10;;;;;;4304064;33;20151;-68
2021/08/13 00:41:09;;;;;;;36.17;17.52;;;23.20;39.30;;;;;;4304189;33;20076;-67
2021/08/13 00:43:35;;;;;;;39.30;18.27;;;23.10;39.40;;;;;;4291511;33;20095;-68
2021/08/13 00:46:01;;;;;;;34.33;16.20;;;23.10;39.70;;;;;;4304343;33;20080;-67
2021/08/13 00:48:28;;;;;;;36.05;16.95;;;23.00;39.90;;;;;;4303845;33;20084;-68
2021/08/13 00:50:54;;;;;;;38.28;18.12;;;23.00;40.20;;;;;;4304718;33;20163;-68
2021/08/13 00:53:20;;;;;;;36.95;17.75;;;22.90;40.40;;;;;;4291279;33;20084;-69
2021/08/13 00:55:48;;;;;;;34.47;15.77;;;22.90;40.70;;;;;;4291295;33;20098;-69
2021/08/13 00:58:14;;;;;;;31.50;16.25;;;22.80;40.80;;;;;;4279633;33;20503;-69
2021/08/13 01:00:41;;;;;;;39.28;18.80;;;22.80;41.00;;;;;;4267662;33;20523;-68
2021/08/13 01:03:07;;;;;;;34.45;16.20;;;22.80;41.10;;;;;;4279787;33;20092;-68
2021/08/13 01:05:33;;;;;;;36.95;16.08;;;22.80;41.20;;;;;;4291459;33;20089;-68
2021/08/13 01:07:59;;;;;;;38.95;18.92;;;22.70;41.20;;;;;;4304492;33;20094;-69
2021/08/13 01:10:26;;;;;;;38.90;16.60;;;22.70;41.50;;;;;;4291136;33;20451;-69
2021/08/13 01:13:17;;;;;;;35.55;18.17;;;22.60;41.50;;;;;;4279455;33;20068;-70
2021/08/13 01:15:55;;;;;;;35.63;16.20;;;22.60;41.70;;;;;;4267436;33;20071;-67
2021/08/13 01:18:44;;;;;;;38.25;18.25;;;22.60;42.00;;;;;;4279333;33;20087;-68
2021/08/13 01:21:21;;;;;;;36.67;16.80;;;22.50;42.30;;;;;;4267618;33;20068;-68
2021/08/13 01:23:52;;;;;;;38.28;18.05;;;22.50;42.40;;;;;;4303157;33;20515;-69
2021/08/13 01:26:19;;;;;;;37.92;18.10;;;22.60;42.40;;;;;;4279561;33;20079;-67
2021/08/13 01:28:55;;;;;;;44.47;19.55;;;22.60;42.50;;;;;;4279113;33;20121;-68
2021/08/13 01:31:24;;;;;;;42.50;19.80;;;22.70;42.40;;;;;;4291007;33;20080;-68
2021/08/13 01:34:00;;;;;;;38.13;19.12;;;22.70;42.20;;;;;;4279093;33;20635;-69
2021/08/13 01:36:28;;;;;;;47.67;21.33;;;22.70;42.10;;;;;;4279084;33;20079;-68
2021/08/13 01:38:54;;;;;;;47.28;20.95;;;22.70;42.20;;;;;;4267316;33;20238;-68
2021/08/13 01:41:21;;;;;;;44.92;20.62;;;22.70;42.10;;;;;;4279035;33;20080;-68
2021/08/13 01:43:47;;;;;;;43.67;20.67;;;22.70;42.30;;;;;;4278411;33;20115;-68
2021/08/13 01:46:13;;;;;;;41.90;19.25;;;22.70;42.60;;;;;;4290993;33;20102;-69
2021/08/13 01:48:39;;;;;;;43.80;19.62;;;22.60;42.80;;;;;;4302404;33;20162;-69
2021/08/13 01:51:06;;;;;;;41.08;20.60;;;22.60;42.80;;;;;;4290932;33;20079;-69
2021/08/13 01:53:32;;;;;;;41.63;19.48;;;22.70;42.80;;;;;;4279533;33;20174;-68
2021/08/13 01:55:58;;;;;;;44.80;21.60;;;22.70;42.80;;;;;;4278735;33;20083;-68
2021/08/13 01:58:24;;;;;;;44.50;21.48;;;22.70;42.70;;;;;;4266868;33;20091;-69
2021/08/13 02:00:51;;;;;;;44.15;19.95;;;22.80;42.60;;;;;;4290571;33;20080;-69
2021/08/13 02:03:18;;;;;;;44.05;21.77;;;22.70;42.70;;;;;;4278991;33;20102;-68
2021/08/13 02:05:46;;;;;;;43.00;20.85;;;22.70;42.80;;;;;;4290801;33;20083;-68
2021/08/13 02:08:12;;;;;;;42.55;20.15;;;22.70;43.00;;;;;;4278828;33;20516;-68
2021/08/13 02:10:40;;;;;;;45.35;21.55;;;22.70;43.20;;;;;;4278355;33;20549;-68
2021/08/13 02:13:06;;;;;;;43.30;20.95;;;22.70;43.30;;;;;;4290560;33;20064;-68
2021/08/13 02:15:33;;;;;;;43.33;20.98;;;22.70;43.30;;;;;;4278847;33;20091;-68
2021/08/13 02:18:14;;;;;;;36.35;18.92;;;22.70;43.30;;;;;;4266671;33;20082;-67
2021/08/13 02:20:42;;;;;;;40.72;20.35;;;22.80;43.20;;;;;;4267298;33;20095;-69
2021/08/13 02:23:09;;;;;;;42.53;20.35;;;22.70;43.10;;;;;;4266633;33;20064;-68
2021/08/13 02:25:36;;;;;;;39.80;18.08;;;22.80;42.50;;;;;;4278317;33;20090;-68
2021/08/13 02:28:02;;;;;;;41.80;19.37;;;22.80;42.50;;;;;;4290091;33;20099;-69
2021/08/13 02:30:29;;;;;;;37.42;19.00;;;22.80;42.30;;;;;;4290035;33;20075;-68
2021/08/13 02:32:55;;;;;;;37.47;17.27;;;22.90;42.50;;;;;;4290363;33;20079;-67
2021/08/13 02:35:21;;;;;;;45.10;20.08;;;22.90;42.00;;;;;;4278033;33;20169;-69
2021/08/13 02:37:52;;;;;;;37.88;18.42;;;22.90;41.90;;;;;;4290079;33;20088;-69
2021/08/13 02:40:34;;;;;;;41.78;19.85;;;22.90;41.80;;;;;;4277769;33;20155;-67
2021/08/13 02:43:09;;;;;;;38.10;19.23;;;22.90;41.90;;;;;;4303299;33;20103;-69
2021/08/13 02:45:38;;;;;;;38.72;18.48;;;22.80;41.90;;;;;;4266190;33;20148;-68
2021/08/13 02:48:05;;;;;;;36.72;18.83;;;22.90;41.80;;;;;;4289893;33;20506;-68
2021/08/13 02:50:32;;;;;;;44.25;20.77;;;23.00;41.80;;;;;;4290116;33;20529;-68
2021/08/13 02:53:09;;;;;;;37.88;18.87;;;22.90;41.70;;;;;;4266016;33;20088;-68
2021/08/13 02:55:44;;;;;;;37.67;18.70;;;22.90;41.90;;;;;;4265733;33;20526;-68
2021/08/13 02:58:11;;;;;;;38.50;17.60;;;22.90;42.00;;;;;;4278232;33;20115;-69
2021/08/13 03:00:39;;;;;;;38.47;18.90;;;22.90;42.10;;;;;;4277612;33;20091;-69
2021/08/13 03:03:05;;;;;;;36.30;18.92;;;23.00;42.00;;;;;;4277975;33;20099;-68
2021/08/13 03:05:31;;;;;;;44.80;21.70;;;22.90;41.70;;;;;;4277762;33;20495;-68
2021/08/13 03:07:58;;;;;;;43.85;18.50;;;22.90;41.70;;;;;;4265285;33;20459;-68
2021/08/13 03:10:24;;;;;;;32.05;15.98;;;22.90;41.70;;;;;;4277721;33;20250;-68
2021/08/13 03:12:50;;;;;;;38.42;19.45;;;22.90;41.80;;;;;;4277780;33;20173;-69
2021/08/13 03:15:17;;;;;;;33.38;15.85;;;22.90;41.90;;;;;;4277646;33;20515;-68
2021/08/13 03:17:44;;;;;;;40.72;20.35;;;23.00;41.90;;;;;;4278276;33;20075;-68
2021/08/13 03:20:10;;;;;;;41.47;18.30;;;23.20;41.60;;;;;;4289719;33;20087;-68
2021/08/13 03:22:36;;;;;;;47.22;22.25;;;23.10;41.80;;;;;;4289965;33;20157;-68
2021/08/13 03:25:05;;;;;;;43.65;21.55;;;23.10;41.70;;;;;;4277607;33;20072;-68
2021/08/13 03:27:31;;;;;;;32.90;17.50;;;23.10;41.80;;;;;;4289836;33;20162;-68
2021/08/13 03:29:57;;;;;;;42.17;20.48;;;23.10;41.50;;;;;;4277196;33;20518;-68
2021/08/13 03:32:23;;;;;;;38.22;18.92;;;23.00;41.80;;;;;;4277176;33;20083;-68
2021/08/13 03:34:49;;;;;;;40.10;18.92;;;23.00;41.70;;;;;;4277550;33;20068;-67
2021/08/13 03:37:15;;;;;;;37.75;18.87;;;23.10;41.60;;;;;;4301144;33;20519;-68
2021/08/13 03:39:42;;;;;;;44.13;20.20;;;23.20;41.40;;;;;;4289417;33;20076;-69
2021/08/13 03:42:09;;;;;;;47.95;21.70;;;23.30;41.20;;;;;;4301084;33;20090;-68
2021/08/13 03:45:07;;;;;;;39.08;19.55;;;23.40;41.10;;;;;;3857432;37;20069;-68
2021/08/13 03:47:33;;;;;;;40.50;20.42;;;23.50;40.60;;;;;;4380882;32;20157;-67
2021/08/13 03:49:59;;;;;;;39.65;18.75;;;23.40;40.80;;;;;;4406585;32;20433;-68
2021/08/13 03:52:26;;;;;;;43.67;21.42;;;23.50;40.90;;;;;;4406145;32;20100;-68
2021/08/13 03:54:52;;;;;;;46.10;22.25;;;23.70;40.50;;;;;;4393275;32;20169;-67
2021/08/13 03:57:18;;;;;;;46.78;21.67;;;23.80;40.50;;;;;;4405289;32;20076;-69
2021/08/13 03:59:44;;;;;;;46.42;23.23;;;23.90;40.00;;;;;;4381136;32;20069;-68
2021/08/13 04:02:11;;;;;;;45.83;21.85;;;23.80;39.80;;;;;;4390289;32;20074;-69
2021/08/13 04:04:37;;;;;;;41.83;20.98;;;23.90;39.70;;;;;;4403054;32;20086;-68
2021/08/13 04:07:03;;;;;;;44.13;22.58;;;23.90;39.30;;;;;;4377783;32;20086;-69
2021/08/13 04:09:29;;;;;;;48.58;23.40;;;23.90;39.10;;;;;;4390401;32;20508;-68
2021/08/13 04:11:55;;;;;;;45.12;22.15;;;24.00;38.70;;;;;;4404185;32;20062;-68
2021/08/13 04:14:21;;;;;;;47.20;21.92;;;23.90;38.60;;;;;;4404314;32;20069;-67
2021/08/13 04:16:48;;;;;;;49.72;21.33;;;24.10;38.70;;;;;;4402624;32;20537;-69
2021/08/13 04:19:14;;;;;;;44.17;22.65;;;24.10;38.60;;;;;;4402660;32;20088;-68
2021/08/13 04:21:40;;;;;;;41.47;20.85;;;24.00;38.60;;;;;;4389947;32;20460;-68
2021/08/13 04:24:06;;;;;;;44.92;21.95;;;24.10;38.60;;;;;;4404189;32;20085;-69
2021/08/13 04:26:32;;;;;;;45.97;23.38;;;24.20;38.50;;;;;;4389928;32;20074;-68
2021/08/13 04:28:59;;;;;;;43.75;21.98;;;24.10;38.50;;;;;;4377913;32;20085;-68
2021/08/13 04:31:25;;;;;;;45.28;22.52;;;24.30;38.40;;;;;;4389756;32;20475;-68
2021/08/13 04:33:51;;;;;;;41.63;20.15;;;24.40;37.80;;;;;;4377268;32;20097;-68
2021/08/13 04:36:17;;;;;;;38.65;19.75;;;24.40;37.70;;;;;;4402833;32;20081;-68
2021/08/13 04:38:43;;;;;;;36.00;19.85;;;24.60;37.40;;;;;;4404267;32;20081;-68
2021/08/13 04:41:09;;;;;;;43.42;21.87;;;24.60;36.70;;;;;;4402681;32;20065;-68
2021/08/13 04:43:36;;;;;;;41.67;22.08;;;24.60;37.10;;;;;;4402052;32;20246;-69
2021/08/13 04:46:02;;;;;;;41.15;21.77;;;24.70;37.40;;;;;;4402498;32;20443;-67
2021/08/13 04:48:28;;;;;;;44.10;21.60;;;25.20;36.40;;;;;;4390136;32;20508;-68
2021/08/13 04:50:54;;;;;;;43.38;22.35;;;26.00;33.20;;;;;;4390274;32;20089;-68
2021/08/13 04:53:20;;;;;;;45.60;22.25;;;26.70;32.70;;;;;;4389544;32;20517;-68
2021/08/13 04:55:46;;;;;;;38.47;19.98;;;26.60;32.00;;;;;;4395773;32;20201;-68
2021/08/13 04:58:12;;;;;;;41.70;22.05;;;27.20;31.90;;;;;;4393423;32;20092;-68
2021/08/13 05:00:39;;;;;;;38.13;20.37;;;27.40;30.50;;;;;;4394899;32;20441;-69
2021/08/13 05:03:06;;;;;;;42.62;20.45;;;27.30;31.00;;;;;;4379889;32;20085;-69
2021/08/13 05:05:32;;;;;;;40.72;20.60;;;26.80;31.20;;;;;;4379364;32;20081;-68
2021/08/13 05:07:59;;;;;;;43.97;21.27;;;27.10;31.30;;;;;;4391587;32;20089;-69
2021/08/13 05:10:25;;;;;;;42.83;21.98;;;27.40;31.10;;;;;;4379348;32;20165;-69
2021/08/13 05:12:51;;;;;;;40.75;21.98;;;27.00;31.20;;;;;;4391736;32;20070;-69
2021/08/13 05:15:17;;;;;;;32.65;17.52;;;27.50;31.20;;;;;;4366964;32;20526;-68
2021/08/13 05:17:43;;;;;;;44.70;24.65;;;27.90;30.00;;;;;;4392330;32;20089;-69
2021/08/13 05:20:10;;;;;;;41.03;20.83;;;26.90;30.40;;;;;;4391720;32;20077;-69
2021/08/13 05:22:36;;;;;;;42.75;21.17;;;27.60;30.00;;;;;;4379027;32;20151;-70
2021/08/13 05:25:08;;;;;;;39.80;22.40;;;27.80;29.60;;;;;;4379442;32;20080;-68
2021/08/13 05:27:35;;;;;;;42.00;20.60;;;27.30;30.40;;;;;;4367491;32;20100;-69
2021/08/13 05:30:03;;;;;;;39.22;19.23;;;27.60;30.30;;;;;;4367487;32;20076;-69
2021/08/13 05:32:29;;;;;;;40.63;20.80;;;28.40;28.80;;;;;;4391979;32;20243;-69
2021/08/13 05:34:56;;;;;;;39.95;19.25;;;28.50;28.20;;;;;;4391857;32;20086;-69
2021/08/13 05:37:22;;;;;;;41.15;18.92;;;28.00;28.70;;;;;;4379035;32;20510;-69
2021/08/13 05:39:48;;;;;;;37.35;19.58;;;28.20;28.40;;;;;;4379389;32;20070;-68
2021/08/13 05:42:14;;;;;;;42.92;21.15;;;28.10;29.00;;;;;;4378893;32;20074;-69
2021/08/13 05:44:40;;;;;;;40.00;21.23;;;28.00;29.30;;;;;;4390861;32;20085;-69
2021/08/13 05:47:07;;;;;;;32.85;15.20;;;28.20;28.20;;;;;;4391649;32;20069;-69
2021/08/13 05:49:33;;;;;;;40.17;20.15;;;27.60;29.30;;;;;;4379037;32;20079;-69
2021/08/13 05:51:59;;;;;;;32.10;15.68;;;28.10;28.90;;;;;;4390990;32;20081;-69
2021/08/13 05:54:27;;;;;;;41.60;20.33;;;28.40;28.60;;;;;;4379184;32;20154;-68
2021/08/13 05:56:53;;;;;;;43.08;19.98;;;29.30;27.30;;;;;;4378942;32;20093;-69
2021/08/13 05:59:19;;;;;;;36.17;18.45;;;29.60;26.60;;;;;;4378414;32;20074;-69
2021/08/13 06:01:45;;;;;;;43.03;21.23;;;27.90;28.20;;;;;;4391216;32;20455;-69
2021/08/13 06:04:12;;;;;;;36.80;16.70;;;28.40;27.40;;;;;;4374353;32;20102;-66
2021/08/13 06:06:42;;;;;;;33.85;17.45;;;28.10;28.40;;;;;;4361123;32;20088;-65
2021/08/13 06:09:09;;;;;;;39.22;19.27;;;28.70;27.80;;;;;;4389496;32;20503;-65
2021/08/13 06:11:35;;;;;;;38.22;18.15;;;28.10;28.10;;;;;;4361007;32;20154;-65
2021/08/13 06:14:01;;;;;;;38.78;18.48;;;28.10;30.40;;;;;;4354771;32;20156;-64
2021/08/13 06:16:27;;;;;;;38.25;20.85;;;27.30;29.70;;;;;;4376901;32;20081;-65
2021/08/13 06:18:54;;;;;;;40.22;19.52;;;27.20;30.00;;;;;;4391440;32;20062;-65
2021/08/13 06:21:20;;;;;;;37.78;19.00;;;26.70;30.60;;;;;;4372289;32;20163;-65
2021/08/13 06:23:46;;;;;;;46.58;22.83;;;27.40;29.40;;;;;;4390060;32;20617;-66
2021/08/13 06:26:12;;;;;;;39.67;20.75;;;27.70;29.30;;;;;;4364584;32;20428;-63
2021/08/13 06:28:38;;;;;;;38.00;20.58;;;27.50;29.30;;;;;;4363085;32;20098;-64
2021/08/13 06:31:05;;;;;;;39.20;19.65;;;27.60;29.80;;;;;;4368473;32;20075;-65
2021/08/13 06:33:31;;;;;;;42.15;20.50;;;27.00;30.40;;;;;;4380956;32;20066;-64
2021/08/13 06:35:58;;;;;;;36.25;20.42;;;27.10;30.10;;;;;;4357248;32;20082;-63
2021/08/13 06:38:24;;;;;;;39.97;20.45;;;27.20;30.00;;;;;;4381181;32;20070;-62
2021/08/13 06:40:50;;;;;;;36.25;19.37;;;27.10;30.00;;;;;;4375553;32;20082;-63
2021/08/13 06:43:16;;;;;;;44.90;21.12;;;27.50;30.00;;;;;;4383190;32;20194;-63
2021/08/13 06:45:42;;;;;;;37.72;19.65;;;27.60;30.00;;;;;;4372002;32;20176;-64
2021/08/13 06:48:08;;;;;;;44.20;21.30;;;27.20;30.00;;;;;;4391378;32;20103;-64
2021/08/13 06:50:35;;;;;;;41.53;20.00;;;27.10;30.80;;;;;;4387480;32;20042;-65
2021/08/13 06:53:02;;;;;;;42.53;20.25;;;26.80;31.00;;;;;;4375327;32;20166;-64
2021/08/13 06:55:28;;;;;;;38.22;19.42;;;27.10;31.20;;;;;;4365953;32;20109;-63
2021/08/13 06:57:54;;;;;;;43.47;21.27;;;26.70;31.30;;;;;;4371068;32;20074;-64
2021/08/13 07:00:21;;;;;;;37.35;19.65;;;26.90;31.10;;;;;;4363814;32;20061;-63
2021/08/13 07:02:48;;;;;;;41.35;21.33;;;27.10;31.20;;;;;;4377483;32;20092;-62
2021/08/13 07:05:16;;;;;;;39.38;19.98;;;27.20;30.90;;;;;;4359714;32;20080;-65
2021/08/13 07:07:43;;;;;;;39.40;20.35;;;27.00;30.40;;;;;;4335327;32;20081;-63
2021/08/13 07:10:10;;;;;;;40.35;20.35;;;27.10;31.00;;;;;;4376324;32;20164;-63
2021/08/13 07:12:37;;;;;;;45.03;21.67;;;27.50;30.50;;;;;;4367090;32;20069;-65
2021/08/13 07:15:05;;;;;;;43.03;21.30;;;27.50;30.30;;;;;;4374310;32;20081;-62
2021/08/13 07:17:32;;;;;;;40.08;21.12;;;27.60;30.40;;;;;;4377004;32;20081;-64
2021/08/13 07:19:58;;;;;;;45.72;21.83;;;27.60;30.10;;;;;;4361052;32;20088;-65
2021/08/13 07:22:24;;;;;;;40.45;21.45;;;28.00;29.90;;;;;;4347037;32;20087;-64
2021/08/13 07:24:51;;;;;;;37.53;19.00;;;28.20;29.80;;;;;;4389059;32;20198;-64
2021/08/13 07:27:17;;;;;;;39.75;20.88;;;27.70;29.50;;;;;;4380229;32;20070;-63
2021/08/13 07:29:43;;;;;;;36.80;19.12;;;27.70;29.30;;;;;;4369309;32;20082;-62
2021/08/13 07:32:09;;;;;;;37.47;19.60;;;27.90;29.10;;;;;;4369361;32;20101;-63
2021/08/13 07:34:35;;;;;;;40.60;20.30;;;28.50;28.70;;;;;;4390558;32;20247;-62
2021/08/13 07:37:01;;;;;;;38.08;20.60;;;28.40;28.40;;;;;;4385525;32;20077;-68
2021/08/13 07:39:28;;;;;;;37.42;19.87;;;28.50;28.60;;;;;;4382194;32;20523;-67
2021/08/13 07:41:54;;;;;;;38.30;19.37;;;28.10;28.60;;;;;;4364425;32;20105;-69
2021/08/13 07:44:20;;;;;;;38.20;20.08;;;28.90;28.00;;;;;;4374125;32;20092;-66
2021/08/13 07:46:46;;;;;;;39.22;19.42;;;28.60;27.60;;;;;;4391552;32;20088;-64
2021/08/13 07:49:12;;;;;;;37.80;20.05;;;28.80;28.00;;;;;;4388956;32;20070;-64
2021/08/13 07:51:39;;;;;;;41.35;19.48;;;28.80;27.70;;;;;;4375527;32;20081;-65
2021/08/13 07:54:05;;;;;;;38.88;20.15;;;28.60;27.60;;;;;;4374049;32;20180;-64
2021/08/13 07:56:32;;;;;;;37.20;18.25;;;29.00;27.40;;;;;;4369722;32;20089;-64
2021/08/13 07:58:58;;;;;;;38.20;19.65;;;29.10;27.60;;;;;;4361483;32;20159;-63
2021/08/13 08:01:24;;;;;;;39.88;20.15;;;29.00;27.10;;;;;;4363539;32;20102;-64
2021/08/13 08:03:50;;;;;;;37.33;19.42;;;28.70;27.70;;;;;;4375630;32;20161;-62
2021/08/13 08:06:17;;;;;;;38.92;19.33;;;29.30;26.80;;;;;;4352439;32;20169;-67
2021/08/13 08:08:43;;;;;;;40.33;17.85;;;28.90;26.80;;;;;;4366417;32;20078;-64
2021/08/13 08:11:09;;;;;;;36.60;18.67;;;29.10;26.90;;;;;;4389703;32;20077;-64
2021/08/13 08:13:35;;;;;;;34.47;18.35;;;29.60;26.30;;;;;;4359212;32;20078;-64
2021/08/13 08:16:03;;;;;;;35.85;18.20;;;29.60;26.10;;;;;;4391608;32;20069;-67
2021/08/13 08:18:30;;;;;;;36.50;17.73;;;29.60;26.10;;;;;;4375261;32;20500;-64
2021/08/13 08:20:57;;;;;;;36.60;18.95;;;29.90;26.00;;;;;;4362639;32;20074;-63
2021/08/13 08:23:23;;;;;;;41.80;18.52;;;29.60;25.50;;;;;;4375820;32;20097;-64
2021/08/13 08:25:49;;;;;;;38.10;20.23;;;29.70;26.00;;;;;;4352641;32;20081;-63
2021/08/13 08:28:15;;;;;;;32.53;16.15;;;30.20;25.30;;;;;;4385668;32;20169;-63
2021/08/13 08:30:42;;;;;;;38.97;18.05;;;29.70;24.90;;;;;;4374138;32;20520;-63
2021/08/13 08:33:08;;;;;;;32.45;17.62;;;29.60;25.40;;;;;;4358787;32;20069;-62
2021/08/13 08:35:34;;;;;;;35.05;17.33;;;29.90;25.10;;;;;;4380953;32;20086;-65
2021/08/13 08:38:01;;;;;;;37.08;19.35;;;29.70;25.10;;;;;;4363129;32;20066;-64
2021/08/13 08:40:33;;;;;;;34.42;17.92;;;30.20;24.70;;;;;;4392584;32;20084;-64
2021/08/13 08:43:01;;;;;;;35.75;18.10;;;30.10;24.10;;;;;;4352184;32;20197;-64
2021/08/13 08:45:30;;;;;;;36.50;17.40;;;29.80;24.10;;;;;;4369934;32;20100;-64
2021/08/13 08:48:05;;;;;;;38.63;17.58;;;29.90;24.00;;;;;;4376191;32;20790;-64
2021/08/13 08:50:32;;;;;;;40.30;18.02;;;30.40;23.40;;;;;;4377081;32;20166;-65
2021/08/13 08:53:01;;;;;;;34.50;17.77;;;30.20;23.40;;;;;;4376548;32;20070;-64
2021/08/13 08:55:28;;;;;;;38.47;18.87;;;30.30;23.70;;;;;;4364046;32;20077;-61
2021/08/13 08:57:55;;;;;;;35.22;18.65;;;30.50;24.00;;;;;;4380856;32;20113;-62
2021/08/13 09:00:22;;;;;;;34.15;17.75;;;30.80;23.80;;;;;;4378957;32;20169;-63
2021/08/13 09:02:48;;;;;;;36.80;18.15;;;30.40;24.10;;;;;;4376564;32;20085;-63
2021/08/13 09:05:15;;;;;;;35.92;18.70;;;30.30;23.80;;;;;;4365423;32;20081;-63
2021/08/13 09:07:41;;;;;;;35.10;18.02;;;30.50;23.50;;;;;;4379124;32;20121;-63
2021/08/13 09:10:11;;;;;;;34.47;17.77;;;31.00;23.40;;;;;;4341310;32;20125;-63
2021/08/13 09:12:38;;;;;;;35.17;16.48;;;30.70;23.80;;;;;;4358218;32;20223;-61
2021/08/13 09:15:26;;;;;;;38.00;17.62;;;30.20;23.80;;;;;;4374834;32;20069;-62
2021/08/13 09:18:17;;;;;;;35.33;17.80;;;30.90;23.60;;;;;;4374996;32;20073;-64
2021/08/13 09:20:52;;;;;;;36.75;18.52;;;31.00;23.20;;;;;;4369541;32;20293;-68
2021/08/13 09:23:38;;;;;;;38.60;18.17;;;30.80;23.20;;;;;;4391225;32;20133;-65
2021/08/13 09:26:12;;;;;;;34.10;17.60;;;31.00;23.10;;;;;;4385749;32;20093;-68
2021/08/13 09:28:59;;;;;;;38.80;18.95;;;31.10;22.80;;;;;;4377885;32;20081;-65
2021/08/13 09:31:30;;;;;;;40.40;19.00;;;31.10;22.80;;;;;;4369474;32;20082;-63
2021/08/13 09:34:10;;;;;;;35.78;17.70;;;31.30;22.90;;;;;;4363713;32;20696;-64
2021/08/13 09:36:49;;;;;;;35.88;18.90;;;31.50;22.40;;;;;;4378287;32;20090;-65
2021/08/13 09:39:15;;;;;;;39.15;19.65;;;30.90;23.00;;;;;;4381690;32;20087;-63
2021/08/13 09:41:50;;;;;;;34.30;17.95;;;31.10;22.90;;;;;;4365689;32;20101;-62
2021/08/13 09:44:31;;;;;;;38.00;18.48;;;31.30;22.30;;;;;;4371661;32;20153;-63
2021/08/13 09:46:59;;;;;;;42.33;19.52;;;31.60;22.20;;;;;;4365897;32;20094;-63
2021/08/13 09:49:26;;;;;;;37.58;19.23;;;31.10;22.60;;;;;;4352743;32;20065;-65
2021/08/13 09:51:53;;;;;;;33.10;17.80;;;31.50;22.20;;;;;;4374522;32;20154;-65
2021/08/13 09:54:25;;;;;;;35.95;19.42;;;31.10;22.60;;;;;;4372617;32;20096;-64
2021/08/13 09:56:51;;;;;;;36.50;18.42;;;31.00;22.90;;;;;;4366317;32;20062;-64
2021/08/13 09:59:20;;;;;;;39.38;19.37;;;31.20;22.50;;;;;;4391642;32;20493;-64
2021/08/13 10:01:50;;;;;;;34.95;18.05;;;31.10;22.20;;;;;;4376923;32;20066;-66
2021/08/13 10:04:33;;;;;;;32.50;17.45;;;31.30;22.10;;;;;;4390464;32;20058;-64
2021/08/13 10:07:00;;;;;;;39.05;19.62;;;31.20;22.20;;;;;;4379940;32;20108;-63
2021/08/13 10:09:28;;;;;;;36.10;18.55;;;31.70;22.00;;;;;;4377631;32;20493;-64
2021/08/13 10:11:55;;;;;;;35.03;19.20;;;31.70;21.80;;;;;;4352276;32;20109;-64
2021/08/13 10:14:29;;;;;;;35.15;19.25;;;32.20;21.10;;;;;;4372492;32;20135;-65
2021/08/13 10:17:13;;;;;;;35.40;18.33;;;32.20;21.20;;;;;;4367002;32;20086;-65
2021/08/13 10:19:42;;;;;;;31.05;17.00;;;31.70;22.20;;;;;;4356211;32;20497;-62
2021/08/13 10:22:08;;;;;;;39.25;18.87;;;31.50;22.30;;;;;;4367120;32;20067;-64
2021/08/13 10:24:35;;;;;;;37.90;18.08;;;31.70;21.90;;;;;;4373570;32;20105;-65
2021/08/13 10:27:03;;;;;;;34.78;18.67;;;31.80;21.80;;;;;;4357284;32;20185;-64
2021/08/13 10:29:29;;;;;;;38.13;18.52;;;31.50;21.80;;;;;;4361612;32;20065;-65
2021/08/13 10:31:59;;;;;;;40.12;19.30;;;31.90;21.80;;;;;;4348516;32;20137;-62
2021/08/13 10:34:26;;;;;;;36.00;18.75;;;32.20;22.80;;;;;;4377784;32;20241;-65
2021/08/13 10:36:52;;;;;;;33.70;18.17;;;32.10;21.60;;;;;;4377109;32;20090;-66
2021/08/13 10:39:20;;;;;;;39.40;19.05;;;32.30;21.50;;;;;;4379739;32;20166;-64
2021/08/13 10:42:00;;;;;;;36.22;17.90;;;32.30;21.60;;;;;;4387867;32;20066;-67
2021/08/13 10:44:29;;;;;;;35.65;18.27;;;31.70;21.40;;;;;;4380599;32;20604;-64
2021/08/13 10:46:56;;;;;;;38.95;18.62;;;32.30;21.10;;;;;;4369100;32;20142;-64
2021/08/13 10:49:22;;;;;;;35.20;18.62;;;32.00;21.30;;;;;;4342979;32;20089;-64
2021/08/13 10:52:02;;;;;;;36.45;18.70;;;32.30;21.00;;;;;;4351284;32;20092;-66
2021/08/13 10:54:49;;;;;;;35.55;19.30;;;32.40;20.90;;;;;;4376039;32;20046;-65
2021/08/13 10:57:15;;;;;;;32.95;19.00;;;32.20;20.70;;;;;;4366883;32;20074;-63
2021/08/13 10:59:41;;;;;;;36.13;17.90;;;31.90;21.10;;;;;;4385017;32;20084;-64
2021/08/13 11:02:17;;;;;;;35.22;18.90;;;31.70;21.40;;;;;;4390140;32;20073;-63
2021/08/13 11:04:46;;;;;;;35.28;19.73;;;31.80;21.20;;;;;;4354135;32;20067;-66
2021/08/13 11:07:12;;;;;;;36.53;18.67;;;31.90;21.40;;;;;;4374859;32;20077;-65
2021/08/13 11:09:42;;;;;;;38.05;18.90;;;31.80;21.60;;;;;;4372129;32;20132;-64
2021/08/13 11:12:13;;;;;;;37.72;18.73;;;32.00;21.40;;;;;;4354323;32;20077;-73
2021/08/13 11:14:53;;;;;;;35.03;18.00;;;31.80;21.90;;;;;;4357890;32;20082;-64
2021/08/13 11:17:43;;;;;;;35.72;19.73;;;31.60;21.50;;;;;;4374395;32;20059;-62
2021/08/13 11:20:16;;;;;;;34.92;18.87;;;31.80;21.30;;;;;;4388138;32;20182;-64
2021/08/13 11:22:42;;;;;;;38.05;19.23;;;31.90;21.10;;;;;;4371077;32;20120;-63
2021/08/13 11:25:10;;;;;;;37.67;17.73;;;31.50;21.40;;;;;;4370038;32;20071;-61
2021/08/13 11:27:36;;;;;;;35.20;18.75;;;31.50;21.30;;;;;;4373011;32;20082;-63
2021/08/13 11:30:26;;;;;;;38.53;19.35;;;31.50;21.40;;;;;;4366702;32;20496;-63
2021/08/13 11:32:52;;;;;;;35.03;18.25;;;31.60;21.50;;;;;;4354920;32;20101;-63
2021/08/13 11:35:36;;;;;;;40.42;18.25;;;31.90;21.50;;;;;;4376184;32;20097;-65
2021/08/13 11:38:02;;;;;;;40.45;18.98;;;32.30;20.80;;;;;;4376805;32;20077;-65
2021/08/13 11:40:31;;;;;;;33.05;18.27;;;32.10;20.70;;;;;;4379438;32;20066;-67
2021/08/13 11:43:00;;;;;;;37.90;19.45;;;32.70;20.60;;;;;;4383479;32;20078;-66
2021/08/13 11:45:38;;;;;;;39.90;19.52;;;32.60;20.50;;;;;;4364472;32;20065;-68
2021/08/13 11:48:05;;;;;;;40.08;19.17;;;32.60;20.70;;;;;;4352019;32;20536;-65
2021/08/13 11:50:32;;;;;;;39.75;20.67;;;33.00;20.50;;;;;;4341903;32;20082;-66
2021/08/13 11:52:58;;;;;;;37.50;19.42;;;32.60;20.70;;;;;;4374255;32;20098;-67
2021/08/13 11:55:29;;;;;;;37.17;18.30;;;32.70;20.60;;;;;;4361186;32;20086;-66
2021/08/13 11:58:06;;;;;;;39.35;19.87;;;32.90;20.60;;;;;;4371141;32;20186;-67
2021/08/13 12:00:35;;;;;;;35.33;19.52;;;32.60;20.50;;;;;;4353714;32;20074;-68
2021/08/13 12:03:08;;;;;;;38.00;20.23;;;32.40;20.90;;;;;;4374373;32;20084;-65
2021/08/13 12:05:40;;;;;;;35.58;18.92;;;32.70;20.20;;;;;;4386368;32;20167;-65
2021/08/13 12:08:12;;;;;;;37.05;18.75;;;32.80;20.40;;;;;;4379371;32;20909;-67
2021/08/13 12:10:47;;;;;;;35.92;18.73;;;32.80;20.10;;;;;;4355900;32;20190;-65
2021/08/13 12:13:13;;;;;;;35.58;19.10;;;32.40;20.20;;;;;;4382569;32;20144;-65
2021/08/13 12:15:41;;;;;;;39.95;19.15;;;32.60;20.30;;;;;;4365008;32;20093;-64
2021/08/13 12:18:08;;;;;;;36.30;18.35;;;32.70;20.00;;;;;;4369471;32;20077;-65
2021/08/13 12:20:36;;;;;;;35.42;18.70;;;32.90;20.30;;;;;;4365141;32;20069;-66
2021/08/13 12:23:10;;;;;;;38.47;19.23;;;32.90;20.20;;;;;;4361146;32;20524;-65
2021/08/13 12:25:39;;;;;;;35.97;18.77;;;33.00;20.30;;;;;;4375467;32;20116;-65
2021/08/13 12:28:06;;;;;;;38.40;18.95;;;32.90;20.20;;;;;;4349911;32;20097;-66
2021/08/13 12:30:33;;;;;;;39.40;20.83;;;33.10;20.00;;;;;;4357955;32;20094;-65
2021/08/13 12:33:00;;;;;;;39.03;20.40;;;33.20;19.90;;;;;;4352525;32;20072;-69
2021/08/13 12:35:39;;;;;;;35.97;18.95;;;33.20;20.20;;;;;;4375917;32;20543;-65